Time;durP1;ratioP1;P1;durP2;ratioP2;P2;SDS_P1;SDS_P2;PMS_P1;PMS_P2;Temp;Humidity;BMP_temperature;BMP_pressure;BME280_temperature;BME280_humidity;BME280_pressure;Samples;Min_cycle;Max_cycle;Signal;HPM_P1;HPM_P2
2022/04/21 00:00:42;;;;;;;40.73;9.90;;;7.50;18.00;;;;;;5003435;28;20475;-62
2022/04/21 00:03:08;;;;;;;37.23;8.57;;;7.50;18.10;;;;;;5004684;28;20476;-60
2022/04/21 00:05:36;;;;;;;38.70;9.47;;;7.40;18.10;;;;;;5010765;28;21004;-62
2022/04/21 00:08:03;;;;;;;38.27;9.43;;;7.40;18.20;;;;;;5005694;28;20499;-60
2022/04/21 00:10:31;;;;;;;39.07;10.23;;;7.40;18.40;;;;;;5008281;28;20479;-62
2022/04/21 00:12:59;;;;;;;44.60;11.30;;;7.40;18.50;;;;;;5011032;28;20468;-61
2022/04/21 00:15:28;;;;;;;40.07;9.33;;;7.40;18.50;;;;;;5008372;28;20984;-61
2022/04/21 00:17:55;;;;;;;37.77;10.43;;;7.40;18.50;;;;;;5006027;28;20491;-61
2022/04/21 00:20:22;;;;;;;37.70;8.40;;;7.30;18.60;;;;;;5010276;28;20970;-62
2022/04/21 00:25:33;;;;;;;39.17;8.83;;;7.30;18.70;;;;;;5010174;28;20546;-61
2022/04/21 00:28:00;;;;;;;42.87;11.57;;;7.30;18.90;;;;;;5009280;28;21005;-61
2022/04/21 00:30:29;;;;;;;39.20;9.87;;;7.20;18.80;;;;;;5005420;28;20463;-62
2022/04/21 00:32:56;;;;;;;39.93;10.30;;;7.20;18.90;;;;;;5005125;28;20460;-62
2022/04/21 00:35:22;;;;;;;38.90;8.87;;;7.20;18.90;;;;;;5003958;28;20456;-61
2022/04/21 00:37:50;;;;;;;38.67;10.27;;;7.20;18.90;;;;;;5005289;28;20483;-61
2022/04/21 00:40:18;;;;;;;39.20;10.27;;;7.20;18.90;;;;;;5006724;28;20464;-62
2022/04/21 00:42:46;;;;;;;42.87;10.53;;;7.20;18.90;;;;;;5008466;28;20471;-61
2022/04/21 00:45:13;;;;;;;39.60;10.57;;;7.20;19.00;;;;;;5004834;28;20483;-62
2022/04/21 00:47:44;;;;;;;38.67;9.67;;;7.10;19.00;;;;;;5003147;28;20479;-62
2022/04/21 00:50:13;;;;;;;37.90;9.90;;;7.10;19.00;;;;;;5005943;28;20553;-62
2022/04/21 00:52:41;;;;;;;38.97;9.60;;;7.00;19.60;;;;;;5005719;28;20463;-62
2022/04/21 00:55:09;;;;;;;38.80;10.97;;;6.90;20.00;;;;;;5005966;28;21068;-60
2022/04/21 00:57:37;;;;;;;38.57;9.90;;;6.80;20.00;;;;;;5009697;28;20491;-62
2022/04/21 01:00:07;;;;;;;40.40;10.77;;;6.80;20.30;;;;;;5004550;28;20472;-62
2022/04/21 01:02:52;;;;;;;37.73;10.20;;;6.70;20.20;;;;;;5010678;28;20468;-60
2022/04/21 01:05:29;;;;;;;39.73;11.70;;;6.70;20.60;;;;;;5009137;28;21129;-61
2022/04/21 01:07:56;;;;;;;39.20;11.47;;;6.70;20.80;;;;;;5005632;28;20573;-61
2022/04/21 01:10:25;;;;;;;41.27;12.50;;;6.60;20.90;;;;;;5002238;28;20460;-60
2022/04/21 01:12:51;;;;;;;37.10;9.83;;;6.60;21.20;;;;;;5003369;28;20487;-61
2022/04/21 01:15:18;;;;;;;38.77;11.60;;;6.60;21.30;;;;;;5013905;28;20452;-60
2022/04/21 01:17:46;;;;;;;38.73;10.70;;;6.60;21.60;;;;;;5005383;28;20479;-62
2022/04/21 01:20:18;;;;;;;37.53;11.00;;;6.60;21.40;;;;;;5010390;28;20469;-60
2022/04/21 01:22:45;;;;;;;36.93;10.23;;;6.50;21.60;;;;;;5000126;28;20468;-60
2022/04/21 01:25:12;;;;;;;39.20;10.67;;;6.50;21.70;;;;;;5007732;28;20983;-61
2022/04/21 01:27:39;;;;;;;37.33;10.67;;;6.50;21.60;;;;;;5010714;28;20517;-61
2022/04/21 01:30:08;;;;;;;40.60;10.30;;;6.50;22.00;;;;;;5002445;28;20502;-62
2022/04/21 01:32:36;;;;;;;39.53;11.33;;;6.40;21.90;;;;;;5003793;28;20495;-63
2022/04/21 01:35:07;;;;;;;36.83;10.40;;;6.50;22.20;;;;;;5003272;28;20522;-64
2022/04/21 01:43:06;;;;;;;40.20;10.07;;;6.40;22.60;;;;;;5008486;28;20485;-64
2022/04/21 01:45:34;;;;;;;37.20;10.40;;;6.40;22.30;;;;;;5007212;28;20515;-60
2022/04/21 01:48:02;;;;;;;38.00;10.03;;;6.40;22.90;;;;;;5007095;28;20892;-62
2022/04/21 01:50:29;;;;;;;36.67;9.90;;;6.30;22.80;;;;;;5010235;28;20463;-61
2022/04/21 01:52:58;;;;;;;36.37;11.17;;;6.30;22.90;;;;;;5009044;28;20460;-62
2022/04/21 01:55:25;;;;;;;39.57;9.40;;;6.30;23.00;;;;;;5013201;28;21010;-63
2022/04/21 01:57:52;;;;;;;35.87;10.33;;;6.30;23.10;;;;;;5015945;28;20501;-60
2022/04/21 02:00:19;;;;;;;38.50;9.83;;;6.20;23.10;;;;;;5010229;28;20465;-64
2022/04/21 02:02:46;;;;;;;38.93;10.60;;;6.20;23.10;;;;;;5011383;28;20469;-60
2022/04/21 02:05:12;;;;;;;37.67;10.30;;;6.20;23.10;;;;;;5010484;28;20495;-64
2022/04/21 02:07:42;;;;;;;39.23;10.10;;;6.20;23.20;;;;;;5016893;28;20493;-64
2022/04/21 02:10:11;;;;;;;41.20;10.60;;;6.20;23.30;;;;;;5007953;28;20468;-63
2022/04/21 02:12:38;;;;;;;38.20;10.63;;;6.20;23.20;;;;;;5010915;28;20459;-62
2022/04/21 02:15:06;;;;;;;37.33;11.20;;;6.20;23.30;;;;;;5008603;28;20478;-63
2022/04/21 02:17:33;;;;;;;42.50;11.10;;;6.20;23.20;;;;;;5011182;28;20483;-61
2022/04/21 02:20:00;;;;;;;37.43;10.30;;;6.10;23.40;;;;;;5012624;28;20498;-61
2022/04/21 02:22:27;;;;;;;38.23;10.67;;;6.10;23.50;;;;;;5008986;28;20494;-61
2022/04/21 02:24:54;;;;;;;38.80;10.93;;;6.10;23.50;;;;;;5018404;28;20490;-62
2022/04/21 02:27:22;;;;;;;38.37;11.53;;;6.10;23.60;;;;;;5012498;28;20581;-62
2022/04/21 02:29:49;;;;;;;37.07;10.43;;;6.10;23.60;;;;;;5006676;28;20460;-66
2022/04/21 02:32:16;;;;;;;37.73;10.43;;;6.10;23.70;;;;;;5008233;28;20525;-62
2022/04/21 02:34:43;;;;;;;36.03;9.97;;;6.10;24.00;;;;;;5006634;28;20484;-60
2022/04/21 02:37:09;;;;;;;38.70;12.60;;;6.10;24.10;;;;;;5009040;28;20480;-64
2022/04/21 02:39:36;;;;;;;46.73;11.57;;;6.10;24.50;;;;;;5009637;28;20462;-61
2022/04/21 02:42:03;;;;;;;38.63;10.97;;;6.10;24.70;;;;;;5007684;28;20460;-62
2022/04/21 02:44:32;;;;;;;39.00;11.17;;;6.10;24.70;;;;;;5013060;28;20476;-64
2022/04/21 02:46:59;;;;;;;38.10;11.00;;;6.10;24.70;;;;;;5008723;28;20483;-61
2022/04/21 02:49:27;;;;;;;39.43;10.90;;;6.10;24.60;;;;;;5013793;28;20467;-60
2022/04/21 02:51:54;;;;;;;38.27;10.60;;;6.10;24.50;;;;;;5005778;28;20503;-63
2022/04/21 02:57:23;;;;;;;38.87;11.40;;;6.10;25.00;;;;;;5010095;28;20485;-60
2022/04/21 02:59:53;;;;;;;38.67;11.03;;;6.00;24.70;;;;;;5009011;28;20468;-62
2022/04/21 03:02:20;;;;;;;39.40;10.97;;;6.00;25.00;;;;;;5009711;28;20511;-61
2022/04/21 03:04:47;;;;;;;36.77;9.50;;;6.00;24.80;;;;;;5010277;28;20490;-65
2022/04/21 03:07:15;;;;;;;40.00;11.83;;;6.00;24.60;;;;;;5013413;28;20487;-60
2022/04/21 03:09:42;;;;;;;43.63;11.27;;;6.00;24.60;;;;;;5010836;28;20467;-64
2022/04/21 03:12:10;;;;;;;39.13;11.10;;;6.00;25.00;;;;;;5007912;28;20487;-64
2022/04/21 03:14:37;;;;;;;39.10;11.73;;;6.00;24.70;;;;;;5012288;28;20463;-64
2022/04/21 03:17:06;;;;;;;39.77;11.70;;;6.00;25.20;;;;;;5010910;28;20483;-61
2022/04/21 03:19:34;;;;;;;38.60;12.60;;;5.90;25.40;;;;;;5015163;28;20468;-63
2022/04/21 03:24:45;;;;;;;40.83;11.70;;;5.90;25.80;;;;;;5010285;28;20478;-62
2022/04/21 03:27:13;;;;;;;41.27;12.50;;;5.90;25.90;;;;;;5010236;28;20491;-61
2022/04/21 03:29:40;;;;;;;40.17;11.83;;;5.90;26.10;;;;;;5010183;28;20525;-61
2022/04/21 03:32:11;;;;;;;36.73;12.67;;;5.90;26.40;;;;;;5006046;28;20479;-61
2022/04/21 03:34:40;;;;;;;38.13;10.70;;;5.80;26.60;;;;;;5007852;28;20466;-61
2022/04/21 03:37:07;;;;;;;38.87;12.50;;;5.90;26.70;;;;;;5007287;28;20488;-61
2022/04/21 03:39:34;;;;;;;36.60;12.77;;;5.90;26.70;;;;;;5005078;28;20483;-62
2022/04/21 03:42:01;;;;;;;34.87;12.23;;;5.90;27.00;;;;;;5004733;28;20464;-62
2022/04/21 03:44:28;;;;;;;37.87;13.03;;;5.90;27.00;;;;;;5005824;28;20490;-61
2022/04/21 03:46:57;;;;;;;36.00;13.13;;;5.90;27.30;;;;;;5006316;28;21020;-61
2022/04/21 03:49:26;;;;;;;35.73;12.17;;;5.90;27.40;;;;;;5008676;28;20462;-61
2022/04/21 03:51:52;;;;;;;37.20;13.07;;;5.90;27.40;;;;;;5006394;28;20463;-62
2022/04/21 03:54:19;;;;;;;35.73;12.40;;;5.90;27.20;;;;;;5005265;28;20718;-62
2022/04/21 03:56:46;;;;;;;36.10;12.17;;;5.90;27.20;;;;;;5008916;28;20472;-60
2022/04/21 03:59:13;;;;;;;35.90;13.57;;;5.90;27.40;;;;;;5007474;28;20474;-62
2022/04/21 04:01:40;;;;;;;38.23;14.57;;;5.90;27.40;;;;;;5001391;28;20488;-62
2022/04/21 04:04:07;;;;;;;36.93;12.93;;;5.90;27.40;;;;;;5002502;28;20463;-64
2022/04/21 04:12:15;;;;;;;39.40;14.70;;;6.00;27.70;;;;;;4960952;28;20446;-61
2022/04/21 04:14:42;;;;;;;37.40;13.67;;;6.00;27.90;;;;;;4994941;28;20452;-63
2022/04/21 04:17:10;;;;;;;40.73;14.87;;;6.00;27.90;;;;;;5007229;28;20479;-62
2022/04/21 04:19:37;;;;;;;40.73;14.00;;;6.00;28.40;;;;;;5007408;28;20460;-62
2022/04/21 04:22:06;;;;;;;39.40;15.60;;;6.10;28.60;;;;;;5007290;28;20988;-63
2022/04/21 04:24:33;;;;;;;38.60;16.43;;;6.10;28.40;;;;;;4995590;28;20518;-62
2022/04/21 04:27:00;;;;;;;36.83;13.63;;;6.20;28.20;;;;;;5007246;28;20479;-62
2022/04/21 04:29:27;;;;;;;46.37;15.00;;;6.20;28.10;;;;;;5012383;28;20515;-62
2022/04/21 04:31:54;;;;;;;40.03;14.70;;;6.30;28.30;;;;;;5008413;28;20487;-61
2022/04/21 04:34:22;;;;;;;41.53;14.10;;;6.30;28.00;;;;;;5013362;28;20476;-64
2022/04/21 04:36:48;;;;;;;40.53;13.40;;;6.40;27.80;;;;;;5003224;28;20463;-63
2022/04/21 04:39:17;;;;;;;44.50;15.00;;;6.40;27.70;;;;;;5009027;28;20552;-62
2022/04/21 04:44:28;;;;;;;44.17;14.20;;;6.50;27.30;;;;;;5009346;28;20479;-63
2022/04/21 04:46:54;;;;;;;41.80;12.87;;;6.60;27.00;;;;;;5006600;28;20841;-62
2022/04/21 04:49:21;;;;;;;42.70;13.53;;;6.60;27.00;;;;;;5010225;28;20464;-62
2022/04/21 04:51:47;;;;;;;42.30;14.40;;;6.70;27.00;;;;;;5010280;28;20192;-62
2022/04/21 04:54:15;;;;;;;46.63;14.07;;;6.80;26.80;;;;;;5006175;28;20472;-62
2022/04/21 04:56:44;;;;;;;41.80;15.47;;;6.90;26.40;;;;;;5000800;28;20467;-61
2022/04/21 04:59:12;;;;;;;43.70;15.50;;;6.90;26.50;;;;;;5004931;28;20471;-61
2022/04/21 05:01:41;;;;;;;42.60;14.87;;;7.00;26.40;;;;;;5011463;28;20486;-62
2022/04/21 05:04:09;;;;;;;43.33;16.70;;;7.20;26.50;;;;;;5003782;28;20463;-62
2022/04/21 05:06:37;;;;;;;41.23;14.10;;;7.40;27.00;;;;;;5003209;28;20486;-62
2022/04/21 05:09:05;;;;;;;44.63;13.70;;;7.80;26.80;;;;;;5004403;28;20468;-61
2022/04/21 05:11:32;;;;;;;43.97;14.43;;;8.10;26.30;;;;;;5004843;28;21023;-63
2022/04/21 05:14:00;;;;;;;41.60;13.03;;;8.40;26.30;;;;;;5005539;28;20464;-63
2022/04/21 05:16:27;;;;;;;45.33;15.20;;;8.60;26.10;;;;;;5002152;28;20456;-62
2022/04/21 05:18:55;;;;;;;41.50;13.33;;;8.90;25.30;;;;;;5005415;28;20574;-62
2022/04/21 05:21:22;;;;;;;39.77;12.87;;;9.20;23.80;;;;;;5004680;28;20463;-62
2022/04/21 05:23:51;;;;;;;40.43;13.00;;;9.70;22.50;;;;;;5004356;28;20462;-61
2022/04/21 05:26:18;;;;;;;38.83;12.73;;;10.20;21.00;;;;;;5004135;28;20487;-61
2022/04/21 05:28:45;;;;;;;39.40;13.80;;;10.50;19.90;;;;;;5003561;28;20483;-62
2022/04/21 05:31:14;;;;;;;41.87;14.27;;;11.00;19.20;;;;;;5003669;28;20483;-62
2022/04/21 05:33:41;;;;;;;39.10;13.63;;;11.60;18.10;;;;;;5004596;28;21039;-62
2022/04/21 05:36:09;;;;;;;38.57;13.33;;;12.50;16.70;;;;;;5003992;28;20464;-62
2022/04/21 05:38:37;;;;;;;40.50;14.60;;;13.60;14.90;;;;;;5004049;28;20483;-62
2022/04/21 05:41:05;;;;;;;39.00;13.50;;;14.80;12.90;;;;;;5003637;28;20467;-61
2022/04/21 05:43:42;;;;;;;39.97;12.97;;;16.10;10.60;;;;;;5008193;28;20464;-63
2022/04/21 05:46:11;;;;;;;36.90;11.70;;;17.40;8.60;;;;;;5006433;28;20483;-61
2022/04/21 05:48:40;;;;;;;37.13;12.30;;;18.80;6.40;;;;;;5005871;28;20503;-61
2022/04/21 05:51:09;;;;;;;35.07;12.00;;;20.10;4.50;;;;;;5004981;28;20467;-62
2022/04/21 05:53:39;;;;;;;35.20;12.40;;;21.30;3.00;;;;;;5004668;28;20459;-61
2022/04/21 05:56:07;;;;;;;34.00;12.13;;;22.50;1.40;;;;;;5000790;28;20468;-62
2022/04/21 05:58:36;;;;;;;37.13;12.00;;;23.70;1.00;;;;;;5000290;28;20888;-61
2022/04/21 06:01:06;;;;;;;34.87;11.40;;;24.80;1.00;;;;;;5002005;28;20542;-62
2022/04/21 06:03:33;;;;;;;35.43;12.57;;;25.80;1.00;;;;;;5000927;28;20463;-61
2022/04/21 06:06:01;;;;;;;33.30;11.60;;;26.90;1.00;;;;;;5002390;28;20492;-62
2022/04/21 06:08:28;;;;;;;33.07;13.00;;;27.70;1.00;;;;;;4999759;28;20487;-61
2022/04/21 06:10:56;;;;;;;33.37;11.53;;;28.70;1.00;;;;;;5004373;28;20487;-62
2022/04/21 06:13:23;;;;;;;35.00;12.17;;;29.70;1.00;;;;;;5003123;28;20488;-61
2022/04/21 06:15:49;;;;;;;30.83;10.80;;;30.50;1.00;;;;;;5003152;28;20463;-61
2022/04/21 06:18:16;;;;;;;30.30;10.40;;;31.20;1.00;;;;;;5004952;28;20997;-62
2022/04/21 06:20:43;;;;;;;31.50;11.10;;;31.80;1.00;;;;;;5004317;28;20468;-62
2022/04/21 06:23:11;;;;;;;32.90;10.40;;;32.50;1.00;;;;;;5002680;28;20464;-62
2022/04/21 06:25:38;;;;;;;28.73;9.80;;;33.20;1.00;;;;;;5003960;28;21028;-62
2022/04/21 06:28:05;;;;;;;31.07;10.87;;;33.60;1.00;;;;;;5001979;28;20523;-63
2022/04/21 06:30:32;;;;;;;32.97;10.47;;;34.00;1.00;;;;;;5002602;28;20464;-61
2022/04/21 06:32:59;;;;;;;29.10;10.47;;;34.30;1.00;;;;;;5004467;28;20815;-65
2022/04/21 06:35:26;;;;;;;29.80;10.07;;;34.50;1.00;;;;;;5004899;28;22919;-61
2022/04/21 06:37:53;;;;;;;29.03;9.50;;;35.00;1.00;;;;;;5006556;28;20483;-63
2022/04/21 06:40:22;;;;;;;28.73;10.77;;;35.50;1.00;;;;;;5005453;28;20464;-66
2022/04/21 06:42:48;;;;;;;31.20;10.23;;;35.60;1.00;;;;;;5004821;28;20459;-62
2022/04/21 06:48:03;;;;;;;28.87;9.50;;;35.60;1.00;;;;;;5010301;28;20544;-61
2022/04/21 06:50:30;;;;;;;28.50;9.63;;;36.10;1.00;;;;;;5008160;28;20460;-61
2022/04/21 06:52:57;;;;;;;27.90;9.60;;;36.70;1.00;;;;;;5012837;28;20509;-61
2022/04/21 06:55:25;;;;;;;29.90;10.30;;;37.20;1.00;;;;;;5013663;28;20651;-61
2022/04/21 06:57:52;;;;;;;29.87;10.07;;;37.40;1.00;;;;;;5011047;28;21014;-61
2022/04/21 07:00:19;;;;;;;28.07;9.80;;;37.50;1.00;;;;;;5010000;28;20463;-61
2022/04/21 07:02:46;;;;;;;29.20;11.13;;;37.60;1.00;;;;;;5006129;28;20475;-62
2022/04/21 07:05:14;;;;;;;29.70;9.90;;;37.60;1.00;;;;;;5006049;28;20464;-63
2022/04/21 07:07:42;;;;;;;27.80;9.80;;;37.80;1.00;;;;;;5006428;28;20487;-61
2022/04/21 07:10:10;;;;;;;28.47;10.00;;;37.40;1.00;;;;;;5004613;28;20467;-62
2022/04/21 07:12:38;;;;;;;28.13;9.90;;;36.70;1.00;;;;;;5007238;28;20900;-62
2022/04/21 07:15:07;;;;;;;27.77;8.87;;;37.10;1.00;;;;;;5006098;28;20471;-63
2022/04/21 07:17:34;;;;;;;28.63;9.10;;;37.70;1.00;;;;;;5008042;28;20512;-63
2022/04/21 07:20:02;;;;;;;28.17;10.37;;;38.20;1.00;;;;;;5008147;28;20468;-62
2022/04/21 07:22:30;;;;;;;27.20;9.20;;;38.50;1.00;;;;;;5004568;28;20472;-64
2022/04/21 07:24:58;;;;;;;28.30;9.73;;;39.00;1.00;;;;;;5010182;28;20468;-63
2022/04/21 07:27:25;;;;;;;26.90;9.43;;;39.80;1.00;;;;;;5008674;28;20502;-64
2022/04/21 07:29:53;;;;;;;26.90;9.33;;;40.70;1.00;;;;;;5004298;28;20463;-62
2022/04/21 07:32:20;;;;;;;27.00;9.27;;;41.20;1.00;;;;;;5006958;28;21039;-62
2022/04/21 07:34:47;;;;;;;26.00;9.63;;;41.50;1.00;;;;;;5007201;28;20468;-62
2022/04/21 07:37:13;;;;;;;29.47;9.80;;;42.30;1.00;;;;;;5006422;28;20585;-69
2022/04/21 07:39:42;;;;;;;27.57;9.13;;;42.80;1.00;;;;;;5009573;28;20476;-65
2022/04/21 07:42:11;;;;;;;24.60;8.47;;;43.30;1.00;;;;;;5009011;28;20471;-65
2022/04/21 07:44:39;;;;;;;26.20;8.67;;;43.20;1.00;;;;;;5006417;28;20961;-68
2022/04/21 07:47:08;;;;;;;26.70;8.90;;;43.20;1.00;;;;;;5006857;28;20488;-64
2022/04/21 07:49:48;;;;;;;26.90;9.30;;;43.60;1.00;;;;;;5004204;28;20471;-64
2022/04/21 07:55:11;;;;;;;24.77;8.40;;;44.10;1.00;;;;;;5004121;28;20483;-66
2022/04/21 07:57:37;;;;;;;26.07;9.43;;;44.60;1.00;;;;;;5006749;28;20491;-66
2022/04/21 08:00:06;;;;;;;28.43;8.53;;;43.90;1.00;;;;;;5008321;28;20459;-65
2022/04/21 08:02:34;;;;;;;28.03;9.70;;;43.20;1.00;;;;;;5005951;28;20487;-65
2022/04/21 08:05:02;;;;;;;25.03;9.63;;;43.10;1.00;;;;;;5001771;28;20866;-62
2022/04/21 08:07:29;;;;;;;26.33;10.10;;;43.80;1.00;;;;;;5000773;28;20496;-63
2022/04/21 08:09:55;;;;;;;27.30;9.07;;;44.50;1.00;;;;;;5006720;28;20474;-61
2022/04/21 08:12:22;;;;;;;25.47;8.67;;;45.10;1.00;;;;;;5006591;28;20468;-62
2022/04/21 08:14:49;;;;;;;26.60;9.33;;;45.50;1.00;;;;;;5009953;28;20466;-63
2022/04/21 08:17:15;;;;;;;26.17;9.13;;;45.90;1.00;;;;;;5003352;28;20502;-63
2022/04/21 08:19:44;;;;;;;29.80;8.97;;;46.30;1.00;;;;;;5010016;28;20464;-63
2022/04/21 08:22:10;;;;;;;26.80;9.20;;;46.50;1.00;;;;;;5005700;28;20459;-62
2022/04/21 08:32:50;;;;;;;25.10;8.60;;;47.50;1.00;;;;;;5009692;28;20447;-62
2022/04/21 08:35:19;;;;;;;23.77;7.93;;;47.70;1.00;;;;;;5003464;28;20483;-64
2022/04/21 08:37:46;;;;;;;25.27;8.97;;;47.90;1.00;;;;;;5008828;28;20483;-63
2022/04/21 08:40:13;;;;;;;24.80;8.03;;;48.20;1.00;;;;;;5003253;28;20476;-65
2022/04/21 08:42:43;;;;;;;24.47;8.00;;;48.30;1.00;;;;;;5005527;28;20475;-64
2022/04/21 08:45:12;;;;;;;24.80;8.70;;;48.40;1.00;;;;;;5001173;28;20472;-63
2022/04/21 08:47:42;;;;;;;24.63;8.20;;;48.30;1.00;;;;;;4982073;28;20500;-62
2022/04/21 08:50:12;;;;;;;25.17;8.80;;;48.40;1.00;;;;;;4986561;28;20518;-63
2022/04/21 08:52:42;;;;;;;23.40;7.83;;;48.80;1.00;;;;;;4984755;28;21009;-62
2022/04/21 08:55:10;;;;;;;25.77;8.60;;;48.80;1.00;;;;;;5001741;28;20523;-65
2022/04/21 08:57:37;;;;;;;24.53;8.90;;;49.00;1.00;;;;;;5000469;28;20853;-64
2022/04/21 09:00:06;;;;;;;24.33;8.70;;;49.00;1.00;;;;;;5010278;28;21005;-64
2022/04/21 09:02:39;;;;;;;24.10;8.27;;;49.20;1.00;;;;;;5004842;28;20482;-64
2022/04/21 09:05:07;;;;;;;23.40;8.37;;;49.10;1.00;;;;;;5004658;28;20480;-62
2022/04/21 09:07:45;;;;;;;23.90;8.20;;;49.00;1.00;;;;;;5004156;28;20495;-61
2022/04/21 09:10:13;;;;;;;25.77;8.67;;;48.30;1.00;;;;;;5002264;28;20464;-61
2022/04/21 09:12:45;;;;;;;24.23;8.57;;;48.40;1.00;;;;;;5006119;28;20467;-63
2022/04/21 09:15:14;;;;;;;23.27;8.40;;;48.50;1.00;;;;;;5002763;28;20491;-61
2022/04/21 09:17:46;;;;;;;26.50;8.57;;;48.60;1.00;;;;;;5005530;28;20494;-62
2022/04/21 09:20:16;;;;;;;25.03;7.80;;;48.90;1.00;;;;;;5005679;28;20460;-63
2022/04/21 09:22:49;;;;;;;23.77;7.20;;;48.80;1.00;;;;;;5006044;28;20464;-63
2022/04/21 09:25:16;;;;;;;23.90;8.10;;;48.50;1.00;;;;;;5005472;28;20470;-62
2022/04/21 09:27:44;;;;;;;24.47;8.47;;;48.20;1.00;;;;;;5005945;28;20507;-63
2022/04/21 09:30:13;;;;;;;26.60;8.63;;;48.00;1.00;;;;;;5006087;28;20472;-62
2022/04/21 09:32:42;;;;;;;26.60;8.07;;;47.60;1.00;;;;;;5000789;28;21060;-63
2022/04/21 09:35:10;;;;;;;25.80;8.70;;;46.40;1.00;;;;;;4999238;28;20480;-63
2022/04/21 09:37:49;;;;;;;25.50;8.20;;;46.30;1.00;;;;;;5000107;28;20475;-63
2022/04/21 09:40:20;;;;;;;24.50;7.80;;;46.80;1.00;;;;;;5002200;28;20887;-61
2022/04/21 09:42:58;;;;;;;25.07;8.23;;;47.20;1.00;;;;;;5006843;28;20464;-62
2022/04/21 09:48:22;;;;;;;25.07;9.30;;;47.70;1.00;;;;;;5003911;28;20483;-62
2022/04/21 09:50:53;;;;;;;23.70;8.30;;;47.90;1.00;;;;;;5004246;28;20451;-62
2022/04/21 09:53:24;;;;;;;24.23;8.13;;;47.80;1.00;;;;;;5004029;28;20468;-60
2022/04/21 09:55:52;;;;;;;25.60;8.73;;;47.60;1.00;;;;;;5004059;28;20468;-63
2022/04/21 09:58:19;;;;;;;26.53;9.43;;;47.30;1.00;;;;;;5002078;28;20479;-60
2022/04/21 10:00:46;;;;;;;26.10;9.93;;;46.60;1.00;;;;;;5004079;28;20843;-61
2022/04/21 10:03:13;;;;;;;24.80;8.90;;;45.90;1.00;;;;;;5004713;28;20467;-61
2022/04/21 10:05:41;;;;;;;25.07;8.43;;;45.60;1.00;;;;;;5001552;28;20534;-62
2022/04/21 10:08:10;;;;;;;25.57;8.60;;;45.80;1.00;;;;;;5005179;28;20484;-61
2022/04/21 10:10:39;;;;;;;27.30;8.83;;;45.50;1.00;;;;;;5004036;28;21002;-62
2022/04/21 10:13:08;;;;;;;30.00;10.07;;;45.20;1.00;;;;;;5006902;28;20467;-60
2022/04/21 10:15:35;;;;;;;25.97;9.57;;;45.10;1.00;;;;;;5007386;28;20472;-61
2022/04/21 10:18:02;;;;;;;27.00;9.73;;;44.50;1.00;;;;;;5007242;28;20480;-61
2022/04/21 10:20:31;;;;;;;26.53;10.87;;;44.10;1.00;;;;;;5007998;28;20464;-62
2022/04/21 10:23:00;;;;;;;26.27;9.70;;;44.10;1.00;;;;;;5007624;28;20513;-61
2022/04/21 10:25:35;;;;;;;27.30;10.60;;;44.10;1.00;;;;;;5008453;28;20495;-61
2022/04/21 10:28:36;;;;;;;27.37;9.77;;;43.60;1.00;;;;;;4999736;28;20490;-60
2022/04/21 10:31:28;;;;;;;27.67;11.07;;;43.20;1.00;;;;;;5006547;28;20518;-60
2022/04/21 10:33:56;;;;;;;28.23;10.17;;;43.40;1.00;;;;;;5003850;28;20524;-61
2022/04/21 10:36:37;;;;;;;28.57;10.47;;;43.60;1.00;;;;;;5004125;28;20550;-60
2022/04/21 10:39:11;;;;;;;26.53;9.60;;;43.20;1.00;;;;;;5006377;28;20483;-61
2022/04/21 10:41:39;;;;;;;27.63;10.40;;;41.50;1.00;;;;;;5005101;28;20464;-61
2022/04/21 10:44:13;;;;;;;27.57;9.60;;;39.40;1.00;;;;;;5007966;28;20460;-61
2022/04/21 10:46:40;;;;;;;28.00;9.20;;;37.30;1.00;;;;;;5006589;28;20478;-60
2022/04/21 10:49:09;;;;;;;28.07;9.43;;;35.30;1.00;;;;;;5009067;28;20464;-61
2022/04/21 10:58:52;;;;;;;29.87;10.07;;;30.30;1.00;;;;;;5007241;28;21000;-61
2022/04/21 11:01:38;;;;;;;33.20;13.03;;;29.00;1.00;;;;;;5001615;28;21036;-60
2022/04/21 11:04:21;;;;;;;35.80;12.20;;;27.80;1.00;;;;;;5004269;28;20468;-59
2022/04/21 11:06:51;;;;;;;33.90;12.20;;;26.90;1.00;;;;;;5005175;28;20867;-61
2022/04/21 11:09:41;;;;;;;33.93;11.87;;;26.20;1.00;;;;;;5009194;28;20498;-60
2022/04/21 11:12:08;;;;;;;33.77;10.47;;;25.70;1.00;;;;;;5013509;28;20471;-61
2022/04/21 11:14:36;;;;;;;32.17;11.50;;;25.20;1.00;;;;;;5009935;28;20483;-61
2022/04/21 11:17:05;;;;;;;33.20;11.43;;;24.80;1.00;;;;;;5010587;28;20512;-61
2022/04/21 11:19:51;;;;;;;33.80;12.20;;;24.40;1.00;;;;;;5009316;28;21078;-62
2022/04/21 11:22:39;;;;;;;33.60;11.77;;;24.00;1.00;;;;;;5004387;28;20494;-62
2022/04/21 11:25:07;;;;;;;33.07;10.87;;;23.60;1.00;;;;;;5006250;28;20460;-61
2022/04/21 11:27:42;;;;;;;34.07;12.27;;;23.20;1.00;;;;;;5007830;28;20499;-62
2022/04/21 11:30:11;;;;;;;33.63;13.13;;;23.00;1.00;;;;;;5003337;28;20502;-61
2022/04/21 11:32:40;;;;;;;36.13;13.70;;;22.70;1.00;;;;;;5005055;28;20487;-59
2022/04/21 11:35:10;;;;;;;35.83;12.77;;;22.30;1.00;;;;;;5004034;28;20467;-62
2022/04/21 11:37:55;;;;;;;33.90;13.90;;;22.00;1.00;;;;;;5006801;28;20929;-61
2022/04/21 11:40:33;;;;;;;34.17;13.50;;;21.70;1.00;;;;;;4999608;28;20472;-61
2022/04/21 11:43:03;;;;;;;33.57;12.90;;;21.40;1.00;;;;;;5003722;28;20464;-63
2022/04/21 11:45:33;;;;;;;33.30;12.43;;;21.20;1.00;;;;;;5004745;28;20476;-63
2022/04/21 11:48:02;;;;;;;33.03;10.70;;;21.00;1.70;;;;;;5004328;28;20500;-63
2022/04/21 11:50:30;;;;;;;32.97;11.73;;;20.80;2.10;;;;;;5000125;28;20507;-64
2022/04/21 11:52:58;;;;;;;33.60;12.40;;;20.70;2.60;;;;;;5004025;28;20467;-60
2022/04/21 11:55:28;;;;;;;33.43;12.10;;;20.60;2.50;;;;;;5007503;28;20464;-63
2022/04/21 11:57:55;;;;;;;34.50;11.43;;;20.40;2.50;;;;;;5005173;28;20702;-63
2022/04/21 12:08:44;;;;;;;32.80;12.07;;;19.90;4.10;;;;;;5005085;28;20521;-61
2022/04/21 12:11:13;;;;;;;38.87;12.83;;;19.80;4.30;;;;;;5004618;28;20474;-64
2022/04/21 12:13:40;;;;;;;36.13;12.43;;;19.70;4.40;;;;;;5003212;28;20466;-61
2022/04/21 12:16:38;;;;;;;35.10;12.37;;;19.40;4.50;;;;;;5006752;28;20460;-62
2022/04/21 12:19:14;;;;;;;43.43;12.50;;;19.30;4.80;;;;;;5007183;28;20474;-62
2022/04/21 12:21:42;;;;;;;34.60;13.10;;;19.20;5.50;;;;;;5001231;28;20459;-62
2022/04/21 12:24:16;;;;;;;33.60;11.60;;;19.10;5.10;;;;;;5001622;28;20463;-60
2022/04/21 12:26:50;;;;;;;37.20;14.33;;;18.90;5.20;;;;;;5003707;28;20492;-63
2022/04/21 12:29:17;;;;;;;36.03;13.07;;;18.80;5.50;;;;;;5003841;28;20467;-62
2022/04/21 12:31:47;;;;;;;35.40;14.40;;;18.70;5.10;;;;;;5001430;28;20500;-62
2022/04/21 12:34:22;;;;;;;36.00;12.33;;;18.40;5.60;;;;;;5002932;28;20461;-62
2022/04/21 12:36:53;;;;;;;38.20;12.17;;;18.30;6.20;;;;;;5007717;28;20525;-62
2022/04/21 12:39:20;;;;;;;34.80;11.60;;;18.20;5.70;;;;;;5003941;28;20459;-62
2022/04/21 12:41:47;;;;;;;34.27;11.30;;;18.20;6.70;;;;;;5003965;28;20468;-61
2022/04/21 12:44:15;;;;;;;36.27;13.07;;;18.30;8.10;;;;;;5002721;28;20464;-62
2022/04/21 12:46:42;;;;;;;34.40;11.43;;;18.30;7.00;;;;;;4999914;28;20572;-62
2022/04/21 12:49:09;;;;;;;37.20;10.47;;;18.20;7.00;;;;;;5006267;28;20518;-62
2022/04/21 12:51:47;;;;;;;34.10;11.87;;;18.10;6.90;;;;;;5007919;28;20475;-63
2022/04/21 12:54:25;;;;;;;34.20;11.90;;;18.10;8.00;;;;;;5004627;28;20476;-62
2022/04/21 12:56:54;;;;;;;38.47;11.67;;;18.10;7.50;;;;;;5003745;28;20475;-62
2022/04/21 12:59:22;;;;;;;37.80;11.53;;;18.10;6.60;;;;;;5005293;28;20962;-62
2022/04/21 13:01:48;;;;;;;35.93;11.50;;;18.10;7.00;;;;;;5003525;28;20479;-62
2022/04/21 13:04:15;;;;;;;32.60;10.30;;;17.90;6.70;;;;;;5004538;28;20468;-62
2022/04/21 13:06:44;;;;;;;33.17;11.20;;;17.90;7.60;;;;;;5003258;28;20468;-61
2022/04/21 13:09:11;;;;;;;33.37;10.10;;;17.90;7.50;;;;;;5005793;28;20571;-62
2022/04/21 13:11:37;;;;;;;38.47;11.73;;;17.90;7.80;;;;;;5007008;28;20499;-62
2022/04/21 13:14:04;;;;;;;34.87;11.27;;;17.90;8.10;;;;;;5004865;28;20479;-62
2022/04/21 13:16:31;;;;;;;35.03;12.17;;;17.90;7.30;;;;;;5001862;28;20464;-62
2022/04/21 13:18:58;;;;;;;36.00;11.60;;;17.80;7.30;;;;;;5002890;28;20520;-63
2022/04/21 13:24:10;;;;;;;35.37;12.00;;;17.70;8.10;;;;;;5000661;28;20502;-62
2022/04/21 13:26:37;;;;;;;35.50;11.73;;;17.60;7.80;;;;;;4996532;28;20479;-62
2022/04/21 13:29:06;;;;;;;34.17;12.73;;;17.60;8.70;;;;;;4999333;28;21029;-62
2022/04/21 13:34:17;;;;;;;36.80;12.63;;;17.70;8.80;;;;;;5001811;28;20459;-64
2022/04/21 13:36:43;;;;;;;36.33;13.10;;;17.70;7.80;;;;;;5001463;28;20471;-63
2022/04/21 13:39:12;;;;;;;34.97;10.87;;;17.70;7.80;;;;;;5007531;28;20487;-63
2022/04/21 13:41:39;;;;;;;37.97;13.17;;;17.70;7.30;;;;;;5000547;28;20522;-63
2022/04/21 13:44:06;;;;;;;34.67;10.53;;;17.70;7.90;;;;;;5009780;28;20993;-63
2022/04/21 13:46:35;;;;;;;36.17;11.77;;;17.70;8.10;;;;;;5007371;28;20475;-64
2022/04/21 13:49:02;;;;;;;37.13;11.63;;;17.70;8.20;;;;;;5009520;28;20523;-62